Time;durP1;ratioP1;P1;durP2;ratioP2;P2;SDS_P1;SDS_P2;PMS_P1;PMS_P2;Temp;Humidity;BMP_temperature;BMP_pressure;BME280_temperature;BME280_humidity;BME280_pressure;Samples;Min_cycle;Max_cycle;Signal;HPM_P1;HPM_P2
2022/10/14 00:01:00;;;;;;;14.37;10.50;;;;;;;13.07;100.00;98348.25;5101952;28;20239;-83
2022/10/14 00:03:27;;;;;;;14.23;11.37;;;;;;;12.96;100.00;98348.22;5101757;28;20226;-84
2022/10/14 00:05:57;;;;;;;13.97;10.87;;;;;;;12.98;100.00;98355.09;5103692;28;20227;-84
2022/10/14 00:08:27;;;;;;;16.67;11.60;;;;;;;13.00;100.00;98358.47;5105406;28;20249;-83
2022/10/14 00:11:11;;;;;;;14.53;11.23;;;;;;;13.01;100.00;98344.25;5103909;28;20229;-84
2022/10/14 00:13:41;;;;;;;13.30;11.17;;;;;;;13.01;100.00;98343.41;5102234;28;20301;-83
2022/10/14 00:16:29;;;;;;;15.97;12.27;;;;;;;13.03;100.00;98337.00;5116964;28;20214;-84
2022/10/14 00:22:21;;;;;;;14.00;11.53;;;;;;;13.06;100.00;98338.59;5084584;28;20245;-85
2022/10/14 00:35:19;;;;;;;12.87;10.77;;;;;;;13.07;100.00;98343.78;4950213;28;20218;-86
2022/10/14 00:45:30;;;;;;;13.70;10.90;;;;;;;13.03;100.00;98341.47;4960318;28;20686;-86
2022/10/14 01:26:53;;;;;;;;;;;;;;;;;;;;;
2022/10/14 01:29:56;;;;;;;11.13;9.07;;;;;;;13.00;100.00;98323.97;4965564;28;20237;-84
2022/10/14 01:32:32;;;;;;;11.53;9.00;;;;;;;13.02;100.00;98318.56;5000321;28;20235;-85
2022/10/14 01:35:16;;;;;;;11.47;9.53;;;;;;;13.10;100.00;98332.09;4999832;28;20302;-86
2022/10/14 01:37:55;;;;;;;11.97;9.80;;;;;;;13.11;100.00;98329.34;5006714;28;20252;-85
2022/10/14 01:40:29;;;;;;;11.57;8.70;;;;;;;13.13;100.00;98326.53;5043596;28;20629;-84
2022/10/14 01:45:49;;;;;;;11.30;8.57;;;;;;;13.19;100.00;98326.06;5038251;28;20220;-84
2022/10/14 01:48:29;;;;;;;13.03;8.23;;;;;;;13.17;100.00;98322.69;5041261;28;20235;-83
2022/10/14 01:51:06;;;;;;;10.27;8.23;;;;;;;13.13;100.00;98319.44;5040239;28;20221;-84
2022/10/14 01:53:50;;;;;;;10.93;8.87;;;;;;;13.15;100.00;98329.94;5040256;28;20331;-84
2022/10/14 01:56:36;;;;;;;8.77;7.53;;;;;;;13.13;100.00;98331.84;5047564;28;20216;-84
2022/10/14 01:59:44;;;;;;;10.07;8.00;;;;;;;13.01;100.00;98311.56;5043969;28;20274;-84
2022/10/14 02:02:49;;;;;;;10.13;8.80;;;;;;;13.00;100.00;98315.16;5052969;28;20245;-84
2022/10/14 02:05:36;;;;;;;11.63;8.80;;;;;;;12.98;100.00;98323.25;5038141;28;20232;-84
2022/10/14 02:08:14;;;;;;;10.20;8.57;;;;;;;13.03;100.00;98341.47;5047025;28;20235;-83
2022/10/14 02:11:09;;;;;;;10.93;8.80;;;;;;;12.91;100.00;98326.47;5043525;28;20225;-85
2022/10/14 02:14:14;;;;;;;9.53;8.23;;;;;;;12.98;100.00;98327.72;5043595;28;20481;-84
2022/10/14 02:16:48;;;;;;;8.63;7.73;;;;;;;12.97;100.00;98331.34;5049118;28;20248;-84
2022/10/14 02:19:28;;;;;;;11.00;8.07;;;;;;;12.98;100.00;98327.72;5056202;28;20228;-84
2022/10/14 02:22:04;;;;;;;8.30;7.27;;;;;;;12.96;100.00;98327.81;5084538;28;20311;-84
2022/10/14 02:24:40;;;;;;;10.20;7.50;;;;;;;12.91;100.00;98326.47;5082372;28;20528;-84
2022/10/14 02:27:14;;;;;;;8.47;7.53;;;;;;;12.97;100.00;98331.34;5083341;28;20244;-84
2022/10/14 02:29:44;;;;;;;9.33;7.10;;;;;;;13.00;100.00;98329.28;5085702;28;20223;-81
2022/10/14 02:32:14;;;;;;;9.80;7.70;;;;;;;12.95;100.00;98336.75;5083039;28;20692;-81
2022/10/14 02:34:43;;;;;;;9.17;6.90;;;;;;;12.93;100.00;98332.47;5083009;28;20280;-83
2022/10/14 02:37:15;;;;;;;7.57;6.60;;;;;;;12.91;100.00;98327.28;5082953;28;20284;-84
2022/10/14 02:39:46;;;;;;;9.53;7.03;;;;;;;12.80;100.00;98313.16;5093161;28;20254;-83
2022/10/14 02:42:13;;;;;;;6.70;5.93;;;;;;;12.76;100.00;98316.97;5096040;28;20246;-82
2022/10/14 02:44:52;;;;;;;10.30;6.87;;;;;;;12.84;100.00;98325.22;5095990;28;20234;-83
2022/10/14 02:47:34;;;;;;;9.37;6.70;;;;;;;12.73;100.00;98306.63;5093849;28;20282;-84
2022/10/14 02:50:05;;;;;;;8.83;5.93;;;;;;;12.76;100.00;98311.69;5093277;28;20261;-84
2022/10/14 02:52:36;;;;;;;8.97;5.90;;;;;;;12.78;100.00;98315.09;5082810;28;20223;-84
2022/10/14 02:55:04;;;;;;;7.97;6.43;;;;;;;12.80;100.00;98310.50;5082986;28;20285;-81
2022/10/14 02:57:30;;;;;;;7.33;6.30;;;;;;;12.77;100.00;98308.09;5082659;28;20223;-82
2022/10/14 02:59:57;;;;;;;7.03;5.70;;;;;;;12.76;100.00;98306.38;5082610;28;20654;-81
2022/10/14 03:02:24;;;;;;;8.13;6.50;;;;;;;12.74;100.00;98287.94;5082475;28;20243;-81
2022/10/14 03:04:50;;;;;;;8.77;6.13;;;;;;;12.75;100.00;98284.34;5083064;28;20289;-80
2022/10/14 03:07:17;;;;;;;6.63;5.77;;;;;;;12.73;100.00;98286.25;5084600;28;20226;-82
2022/10/14 03:09:45;;;;;;;6.37;5.73;;;;;;;12.73;100.00;98280.09;5082196;28;20225;-81
2022/10/14 03:12:12;;;;;;;6.93;5.87;;;;;;;12.71;100.00;98271.44;5081809;28;20219;-80
2022/10/14 03:14:39;;;;;;;8.80;6.30;;;;;;;12.70;100.00;98275.00;5080894;28;20227;-80
2022/10/14 03:17:05;;;;;;;6.73;5.10;;;;;;;12.67;100.00;98260.22;5085125;28;20266;-81
2022/10/14 03:19:32;;;;;;;7.50;6.03;;;;;;;12.69;100.00;98265.38;5082155;28;20230;-81
2022/10/14 03:21:59;;;;;;;7.07;5.50;;;;;;;12.65;100.00;98250.66;5087828;28;20260;-81
2022/10/14 03:24:25;;;;;;;7.77;6.37;;;;;;;12.69;100.00;98268.88;5085987;28;20352;-81
2022/10/14 03:26:53;;;;;;;7.60;5.73;;;;;;;12.68;100.00;98255.72;5092026;28;20256;-80
2022/10/14 03:29:20;;;;;;;7.30;5.13;;;;;;;12.68;100.00;98259.25;5095246;28;20264;-82
2022/10/14 03:31:47;;;;;;;6.07;5.43;;;;;;;12.65;100.00;98250.66;5095232;28;20229;-80
2022/10/14 03:34:13;;;;;;;7.53;5.67;;;;;;;12.59;100.00;98251.97;5095227;28;20267;-80
2022/10/14 03:36:40;;;;;;;8.13;5.90;;;;;;;12.57;100.00;98248.59;5091798;28;20227;-80
2022/10/14 03:39:07;;;;;;;7.63;6.47;;;;;;;12.58;100.00;98249.41;5094989;28;20265;-79
2022/10/14 03:41:33;;;;;;;7.33;6.27;;;;;;;12.60;100.00;98247.50;5093329;28;20323;-80
2022/10/14 03:44:01;;;;;;;8.37;6.93;;;;;;;12.63;100.00;98241.97;5094844;28;20633;-80
2022/10/14 03:46:28;;;;;;;11.10;7.50;;;;;;;12.65;100.00;98232.94;5091502;28;20269;-80
2022/10/14 03:48:55;;;;;;;9.03;7.00;;;;;;;12.66;100.00;98231.97;5081976;28;20258;-80
2022/10/14 03:51:22;;;;;;;10.47;7.60;;;;;;;12.65;100.00;98240.88;5094744;28;20267;-80
2022/10/14 03:53:49;;;;;;;8.10;6.30;;;;;;;12.63;100.00;98229.56;5094668;28;20222;-80
2022/10/14 03:56:16;;;;;;;7.83;6.10;;;;;;;12.65;100.00;98234.75;5088016;28;20226;-80
2022/10/14 03:58:42;;;;;;;9.13;7.20;;;;;;;12.63;100.00;98231.34;5081363;28;20223;-80
2022/10/14 04:01:10;;;;;;;8.07;6.27;;;;;;;12.61;100.00;98230.66;5081251;28;20266;-80
2022/10/14 04:03:37;;;;;;;9.23;6.60;;;;;;;12.59;100.00;98221.97;5081173;28;20281;-80
2022/10/14 04:06:04;;;;;;;8.20;6.33;;;;;;;12.59;100.00;98214.00;5083756;28;20230;-80
2022/10/14 04:08:31;;;;;;;8.20;6.20;;;;;;;12.57;100.00;98215.91;5080553;28;20223;-79
2022/10/14 04:10:57;;;;;;;7.00;6.30;;;;;;;12.56;100.00;98217.75;5081492;28;20283;-79
2022/10/14 04:13:24;;;;;;;7.70;6.30;;;;;;;12.54;100.00;98221.47;5081333;28;20284;-78
2022/10/14 04:15:51;;;;;;;8.40;6.00;;;;;;;12.53;100.00;98214.47;5083429;28;20273;-77
2022/10/14 04:18:19;;;;;;;7.67;6.57;;;;;;;12.52;100.00;98210.09;5081820;28;20270;-77
2022/10/14 04:20:46;;;;;;;7.37;5.90;;;;;;;12.51;100.00;98203.97;5080981;28;20286;-77
2022/10/14 04:23:12;;;;;;;8.37;6.40;;;;;;;12.53;100.00;98198.56;5080009;28;20286;-77
2022/10/14 04:25:39;;;;;;;7.80;6.23;;;;;;;12.56;100.00;98190.38;5082994;28;20266;-78
2022/10/14 04:28:06;;;;;;;9.00;6.43;;;;;;;12.58;100.00;98191.09;5082020;28;20581;-79
2022/10/14 04:30:33;;;;;;;8.53;7.00;;;;;;;12.60;100.00;98195.31;5081042;28;20235;-78
2022/10/14 04:32:59;;;;;;;8.53;6.17;;;;;;;12.58;100.00;98194.59;5079094;28;20280;-79
2022/10/14 04:35:27;;;;;;;8.27;6.67;;;;;;;12.59;100.00;98198.09;5082661;28;20576;-80
2022/10/14 04:37:54;;;;;;;8.23;6.90;;;;;;;12.59;100.00;98198.09;5092572;28;20279;-80
2022/10/14 04:40:24;;;;;;;8.90;6.70;;;;;;;12.60;100.00;98199.78;5087693;28;20230;-80
2022/10/14 04:42:54;;;;;;;9.63;7.27;;;;;;;12.59;100.00;98182.19;5080819;28;20327;-81
2022/10/14 04:45:21;;;;;;;9.93;7.40;;;;;;;12.58;100.00;98196.38;5083101;28;20223;-81
2022/10/14 04:47:48;;;;;;;9.90;7.47;;;;;;;12.58;100.00;98191.09;5091008;28;20239;-81
2022/10/14 04:50:14;;;;;;;9.57;7.17;;;;;;;12.56;100.00;98191.22;5081090;28;20228;-82
2022/10/14 04:52:42;;;;;;;9.40;7.57;;;;;;;12.54;100.00;98185.19;5080892;28;20651;-82
2022/10/14 04:55:09;;;;;;;10.87;7.73;;;;;;;12.59;100.00;98184.84;5083009;28;20230;-82
2022/10/14 04:57:38;;;;;;;9.70;7.23;;;;;;;12.59;100.00;98182.19;5080430;28;20237;-82
2022/10/14 05:00:09;;;;;;;10.10;7.70;;;;;;;12.59;100.00;98179.53;5079118;28;20230;-83
2022/10/14 05:02:36;;;;;;;9.50;7.57;;;;;;;12.61;100.00;98181.13;5080418;28;20254;-82
2022/10/14 05:05:03;;;;;;;11.33;7.80;;;;;;;12.62;100.00;98177.50;5080520;28;20222;-83
2022/10/14 05:07:30;;;;;;;10.57;8.13;;;;;;;12.59;100.00;98166.28;5080826;28;20236;-82
2022/10/14 05:09:58;;;;;;;11.50;8.23;;;;;;;12.62;100.00;98168.69;5080770;28;20317;-82
2022/10/14 05:12:24;;;;;;;8.90;7.20;;;;;;;12.56;100.00;98155.91;5080562;28;20280;-83
2022/10/14 05:14:54;;;;;;;11.17;8.03;;;;;;;12.57;100.00;98152.28;5083103;28;20223;-83
2022/10/14 05:17:21;;;;;;;9.93;7.93;;;;;;;12.56;100.00;98151.47;5080648;28;20219;-83
2022/10/14 05:19:48;;;;;;;10.90;8.00;;;;;;;12.55;100.00;98144.47;5080631;28;20560;-82
2022/10/14 05:22:17;;;;;;;12.43;8.50;;;;;;;12.55;100.00;98147.13;5080149;28;20306;-83
2022/10/14 05:24:48;;;;;;;10.13;7.73;;;;;;;12.57;100.00;98141.69;5081663;28;20300;-85
2022/10/14 05:27:23;;;;;;;11.60;8.73;;;;;;;12.57;100.00;98139.03;5080632;28;20238;-83
2022/10/14 05:29:50;;;;;;;13.67;9.70;;;;;;;12.56;100.00;98145.31;5080362;28;20237;-83
2022/10/14 05:32:17;;;;;;;13.03;9.60;;;;;;;12.55;100.00;98133.00;5080113;28;20309;-82
2022/10/14 05:34:44;;;;;;;13.33;10.17;;;;;;;12.59;100.00;98130.00;5085812;28;20229;-82
2022/10/14 05:37:13;;;;;;;15.73;10.77;;;;;;;12.60;100.00;98136.16;5084524;28;20230;-82
2022/10/14 05:39:40;;;;;;;17.20;10.80;;;;;;;12.60;100.00;98133.50;5084161;28;20230;-84
2022/10/14 05:42:10;;;;;;;14.40;10.57;;;;;;;12.64;100.00;98132.28;5084058;28;20594;-83
2022/10/14 05:44:39;;;;;;;14.87;10.70;;;;;;;12.66;100.00;98125.06;5096171;28;20572;-83
2022/10/14 05:47:09;;;;;;;16.70;11.20;;;;;;;12.69;100.00;98124.81;5086333;28;20229;-83
2022/10/14 05:49:38;;;;;;;13.70;10.43;;;;;;;12.66;100.00;98127.72;5091210;28;20258;-82
2022/10/14 05:52:06;;;;;;;12.90;10.83;;;;;;;12.71;100.00;98133.53;5089558;28;20229;-82
2022/10/14 05:54:33;;;;;;;14.10;11.20;;;;;;;12.74;100.00;98133.28;5085494;28;20279;-82
2022/10/14 05:57:31;;;;;;;15.03;11.23;;;;;;;12.75;100.00;98129.66;5086325;28;20610;-84
2022/10/14 06:03:27;;;;;;;;;;;;;;;;;;;;;
2022/10/14 06:06:11;;;;;;;16.60;12.00;;;;;;;12.81;100.00;98126.53;5085148;28;20222;-84
2022/10/14 06:08:53;;;;;;;18.10;12.57;;;;;;;12.83;100.00;98119.31;5079881;28;20584;-84
2022/10/14 06:11:24;;;;;;;18.70;13.20;;;;;;;12.94;100.00;98129.91;5083172;28;20257;-84
2022/10/14 06:13:57;;;;;;;20.23;13.03;;;;;;;12.91;100.00;98120.38;5085802;28;20640;-84
2022/10/14 06:16:28;;;;;;;18.60;13.93;;;;;;;12.96;100.00;98125.38;5082276;28;20227;-84
2022/10/14 06:19:13;;;;;;;18.90;13.47;;;;;;;12.97;100.00;98130.53;5083482;28;20250;-85
2022/10/14 06:21:46;;;;;;;16.00;13.10;;;;;;;13.04;100.00;98131.75;5085236;28;20646;-84
2022/10/14 06:24:14;;;;;;;16.03;12.67;;;;;;;13.08;100.00;98137.66;5083717;28;20509;-84
2022/10/14 06:26:47;;;;;;;17.03;12.10;;;;;;;13.10;100.00;98138.38;5082997;28;20620;-83
2022/10/14 06:29:17;;;;;;;19.73;13.30;;;;;;;13.17;100.00;98147.53;5083377;28;20230;-84
2022/10/14 06:31:49;;;;;;;16.23;12.00;;;;;;;13.14;100.00;98131.88;5092792;28;20615;-84
2022/10/14 06:34:22;;;;;;;16.17;12.20;;;;;;;13.15;100.00;98133.56;5094735;28;20277;-84
2022/10/14 06:36:49;;;;;;;15.70;11.87;;;;;;;13.16;100.00;98130.78;5082882;28;20262;-84
2022/10/14 06:57:00;;;;;;;14.43;11.13;;;;;;;13.34;100.00;98131.13;4873006;29;20222;-85
2022/10/14 06:59:31;;;;;;;15.27;11.73;;;;;;;13.44;100.00;98140.88;4972070;28;20554;-84
2022/10/14 07:02:15;;;;;;;14.53;11.37;;;;;;;13.52;100.00;98126.97;5011409;28;20571;-85
2022/10/14 07:04:42;;;;;;;15.63;12.43;;;;;;;13.60;100.00;98135.16;5061955;28;20223;-82
2022/10/14 07:07:09;;;;;;;15.60;11.70;;;;;;;13.71;100.00;98132.47;5092988;28;20525;-83
2022/10/14 07:09:36;;;;;;;16.53;12.30;;;;;;;13.78;100.00;98133.66;5086013;28;20226;-81
2022/10/14 07:12:03;;;;;;;15.93;12.20;;;;;;;13.86;100.00;98139.19;5091585;28;20623;-80
2022/10/14 07:14:30;;;;;;;16.77;12.47;;;;;;;13.90;100.00;98127.34;5084634;28;20231;-79
2022/10/14 07:16:57;;;;;;;19.27;12.57;;;;;;;13.93;100.00;98132.41;5087348;28;20238;-79
2022/10/14 07:19:25;;;;;;;14.13;11.93;;;;;;;13.94;100.00;98126.97;5088062;28;20250;-77
2022/10/14 07:21:51;;;;;;;14.07;11.30;;;;;;;13.96;100.00;98129.50;5084254;28;20287;-79
2022/10/14 07:24:18;;;;;;;15.57;10.27;;;;;;;13.87;100.00;98132.94;5083550;28;20235;-80
2022/10/14 07:26:45;;;;;;;14.47;11.33;;;;;;;13.80;100.00;98142.34;5088527;28;20257;-75
2022/10/14 07:29:12;;;;;;;14.33;10.93;;;;;;;13.78;100.00;98136.31;5088765;28;20257;-78
2022/10/14 07:31:38;;;;;;;15.57;10.83;;;;;;;13.78;100.00;98141.63;5084940;28;20259;-78
2022/10/14 07:34:05;;;;;;;13.97;10.97;;;;;;;13.79;100.00;98136.19;5084860;28;20273;-79
2022/10/14 07:36:35;;;;;;;14.40;11.13;;;;;;;13.89;100.00;98141.59;5084876;28;20227;-86
2022/10/14 07:39:02;;;;;;;13.83;11.00;;;;;;;13.93;100.00;98151.03;5085965;28;20645;-77
2022/10/14 07:41:29;;;;;;;12.27;10.03;;;;;;;13.95;100.00;98149.94;5083655;28;20650;-79
2022/10/14 07:44:04;;;;;;;13.20;9.87;;;;;;;13.98;100.00;98151.47;5083799;28;20299;-81
2022/10/14 07:46:31;;;;;;;12.60;9.50;;;;;;;14.04;100.00;98150.97;5083976;28;20280;-74
2022/10/14 07:48:59;;;;;;;15.83;10.17;;;;;;;14.13;100.00;98156.34;5092039;28;20662;-75
2022/10/14 07:51:27;;;;;;;12.13;9.63;;;;;;;14.24;100.00;98159.00;5095312;28;20277;-75
2022/10/14 07:53:57;;;;;;;12.30;8.87;;;;;;;14.36;100.00;98159.81;5093208;28;20290;-73
2022/10/14 07:56:24;;;;;;;13.10;8.90;;;;;;;14.42;100.00;98159.28;5091054;28;20329;-74
2022/10/14 07:58:51;;;;;;;10.83;8.60;;;;;;;14.44;100.00;98158.19;5095093;28;20263;-74
2022/10/14 08:01:18;;;;;;;10.13;7.90;;;;;;;14.51;100.00;98153.19;5093392;28;20331;-72
2022/10/14 08:03:47;;;;;;;9.57;8.20;;;;;;;14.59;100.00;98150.72;5093097;28;20274;-75
2022/10/14 08:06:14;;;;;;;12.80;8.50;;;;;;;14.70;100.00;98155.97;5094757;28;20261;-73
2022/10/14 08:08:42;;;;;;;10.57;7.90;;;;;;;14.77;100.00;98151.81;5093641;28;20309;-74
2022/10/14 08:11:13;;;;;;;9.10;7.83;;;;;;;14.81;100.00;98145.25;5092190;28;20273;-77
2022/10/14 08:13:40;;;;;;;8.60;7.40;;;;;;;14.83;100.00;98141.50;5086728;28;20306;-78
2022/10/14 08:16:14;;;;;;;11.10;7.83;;;;;;;14.84;100.00;98137.84;5088469;28;20308;-75
2022/10/14 08:18:41;;;;;;;11.20;7.67;;;;;;;14.84;100.00;98139.69;5079777;28;20253;-75
2022/10/14 08:21:08;;;;;;;10.97;7.67;;;;;;;14.81;100.00;98145.25;5078812;28;20240;-75
2022/10/14 08:23:34;;;;;;;10.07;7.40;;;;;;;14.80;100.00;98143.56;5075944;28;20603;-70
2022/10/14 08:26:01;;;;;;;8.73;7.73;;;;;;;14.82;100.00;98138.94;5084939;28;20264;-80
2022/10/14 08:28:29;;;;;;;9.73;7.27;;;;;;;14.89;100.00;98129.47;5079961;28;20265;-76
2022/10/14 08:30:56;;;;;;;9.57;7.80;;;;;;;14.96;100.00;98130.63;5082443;28;20397;-70
2022/10/14 08:33:23;;;;;;;9.47;8.07;;;;;;;15.00;100.00;98137.38;5078333;28;20252;-75
2022/10/14 08:35:52;;;;;;;9.03;7.50;;;;;;;15.04;100.00;98128.97;5085114;28;20264;-78
2022/10/14 08:38:23;;;;;;;8.47;7.07;;;;;;;15.07;100.00;98131.38;5082260;28;20225;-75
2022/10/14 08:41:02;;;;;;;8.17;6.50;;;;;;;15.08;100.00;98130.41;5075350;28;20235;-76
2022/10/14 08:43:33;;;;;;;10.00;6.43;;;;;;;15.09;100.00;98120.59;5083437;28;20265;-78
2022/10/14 08:46:07;;;;;;;9.97;7.30;;;;;;;15.08;100.00;98124.22;5087258;28;20228;-84
2022/10/14 08:48:35;;;;;;;7.40;6.47;;;;;;;15.14;100.00;98121.03;5088996;28;20224;-79
2022/10/14 08:51:07;;;;;;;7.43;6.20;;;;;;;15.18;100.00;98119.78;5084152;28;20257;-80
2022/10/14 08:53:42;;;;;;;8.13;6.50;;;;;;;15.22;100.00;98126.53;5084990;28;20318;-75
2022/10/14 08:56:11;;;;;;;8.98;7.65;;;;;;;15.26;100.00;98117.28;5071089;28;20456;-71
2022/10/14 08:58:43;;;;;;;8.70;6.70;;;;;;;15.34;100.00;98122.84;5090332;28;20299;-72
2022/10/14 09:01:18;;;;;;;8.83;6.70;;;;;;;15.47;100.00;98120.75;5072485;28;20286;-77
2022/10/14 09:03:45;;;;;;;7.13;6.30;;;;;;;15.59;100.00;98117.00;5073762;28;20284;-76
2022/10/14 09:06:20;;;;;;;7.00;6.30;;;;;;;15.70;100.00;98116.88;5062959;28;20221;-75
2022/10/14 09:08:49;;;;;;;7.70;6.57;;;;;;;15.88;100.00;98116.06;5075114;28;20286;-74
2022/10/14 09:11:19;;;;;;;8.57;6.70;;;;;;;15.98;100.00;98110.72;5077988;28;20280;-75
2022/10/14 09:13:49;;;;;;;8.30;6.80;;;;;;;16.08;100.00;98111.59;5089011;28;20243;-75
2022/10/14 09:16:21;;;;;;;8.07;6.77;;;;;;;16.14;100.00;98107.38;5077509;28;20278;-73
2022/10/14 09:18:52;;;;;;;8.00;6.70;;;;;;;16.20;100.00;98108.63;5086105;28;20255;-74
2022/10/14 09:21:28;;;;;;;8.83;6.90;;;;;;;16.29;100.00;98111.31;5086184;28;20251;-73
2022/10/14 09:24:00;;;;;;;7.67;6.47;;;;;;;16.38;100.00;98112.28;5087124;28;20252;-73
2022/10/14 09:26:33;;;;;;;10.27;7.00;;;;;;;16.43;100.00;98108.22;5084889;28;20990;-73
2022/10/14 09:29:02;;;;;;;8.27;7.13;;;;;;;16.41;100.00;98110.16;5088809;28;20260;-73
2022/10/14 09:31:28;;;;;;;11.47;6.70;;;;;;;16.39;100.00;98114.00;5089330;28;20736;-73
2022/10/14 09:33:55;;;;;;;10.63;6.57;;;;;;;16.41;100.00;98112.00;5084053;28;20258;-74
2022/10/14 09:36:22;;;;;;;7.83;6.03;;;;;;;16.47;100.00;98103.44;5087099;28;20242;-74
2022/10/14 09:38:51;;;;;;;8.17;5.73;;;;;;;16.49;100.00;98102.31;5088815;28;20226;-75
2022/10/14 09:41:22;;;;;;;7.47;6.13;;;;;;;16.54;100.00;98105.41;5087565;28;20315;-73
2022/10/14 09:44:20;;;;;;;9.27;6.60;;;;;;;16.56;100.00;98097.22;5085327;28;20281;-73
2022/10/14 09:46:49;;;;;;;8.27;6.17;;;;;;;16.62;100.00;98102.00;5074950;28;20314;-73
2022/10/14 09:49:22;;;;;;;7.20;6.00;;;;;;;16.69;100.00;98103.09;5076898;28;20633;-73
2022/10/14 09:51:50;;;;;;;7.00;5.80;;;;;;;16.75;100.00;98097.19;5082588;28;20306;-73
2022/10/14 09:54:23;;;;;;;6.10;5.50;;;;;;;16.80;100.00;98093.09;5077093;28;20226;-77
2022/10/14 09:56:57;;;;;;;8.00;6.23;;;;;;;16.83;100.00;98095.47;5080040;28;20274;-77
2022/10/14 09:59:25;;;;;;;5.93;5.30;;;;;;;16.85;100.00;98090.84;5085962;28;20269;-75
2022/10/14 10:01:56;;;;;;;6.70;5.83;;;;;;;16.92;100.00;98091.09;5086718;28;20261;-77
2022/10/14 10:04:33;;;;;;;7.97;6.03;;;;;;;16.92;100.00;98089.28;5087495;28;20250;-77
2022/10/14 10:07:04;;;;;;;6.63;5.90;;;;;;;16.83;100.00;98084.78;5087860;28;20276;-78
2022/10/14 10:09:32;;;;;;;7.87;5.87;;;;;;;16.79;100.00;98078.09;5088781;28;20226;-76
2022/10/14 10:11:58;;;;;;;7.30;5.83;;;;;;;16.85;100.00;98082.84;5087451;28;20636;-77
2022/10/14 10:14:29;;;;;;;7.57;5.90;;;;;;;16.93;100.00;98080.28;5087020;28;20258;-76
2022/10/14 10:17:13;;;;;;;5.83;5.10;;;;;;;17.09;100.00;98072.47;5087083;28;20226;-76
2022/10/14 10:19:42;;;;;;;6.87;6.07;;;;;;;17.25;100.00;98063.81;5086963;28;20231;-76
2022/10/14 10:22:21;;;;;;;7.17;5.80;;;;;;;17.44;100.00;98064.56;5091487;28;20246;-76
2022/10/14 10:24:49;;;;;;;7.70;6.10;;;;;;;17.61;100.00;98050.41;5089380;28;20280;-76
2022/10/14 10:27:21;;;;;;;8.03;5.87;;;;;;;17.75;100.00;98051.72;5087715;28;20655;-76
2022/10/14 10:29:49;;;;;;;9.43;5.67;;;;;;;17.83;100.00;98039.25;5091792;28;20273;-77
2022/10/14 10:32:29;;;;;;;10.30;6.20;;;;;;;17.86;100.00;98038.94;5090673;28;20590;-77
2022/10/14 10:35:18;;;;;;;7.43;5.60;;;;;;;17.85;100.00;98036.44;5088383;28;20585;-75
2022/10/14 10:37:59;;;;;;;8.00;5.73;;;;;;;17.87;100.00;98035.28;5082441;28;20284;-76
2022/10/14 10:40:37;;;;;;;7.83;5.70;;;;;;;17.93;100.00;98029.31;5081625;28;20226;-75
2022/10/14 10:43:33;;;;;;;7.00;5.47;;;;;;;17.97;99.74;98025.34;5085706;28;20222;-76
2022/10/14 10:46:12;;;;;;;6.10;5.20;;;;;;;18.10;98.13;98020.44;5049337;28;20262;-75
2022/10/14 10:48:45;;;;;;;8.43;5.87;;;;;;;18.26;98.03;98006.34;5086342;28;20258;-77
2022/10/14 10:51:16;;;;;;;5.83;4.90;;;;;;;18.41;96.61;98000.28;5090587;28;20742;-76
2022/10/14 10:54:01;;;;;;;8.73;5.47;;;;;;;18.54;95.25;97995.34;5084499;28;20276;-74
2022/10/14 10:56:38;;;;;;;5.63;4.93;;;;;;;18.61;95.42;97996.41;5079446;28;20245;-77
2022/10/14 10:59:35;;;;;;;7.00;5.10;;;;;;;18.65;94.84;97995.06;5090652;28;20233;-76
2022/10/14 11:02:25;;;;;;;5.67;4.93;;;;;;;18.63;93.74;97990.88;5089993;28;20233;-77
2022/10/14 11:04:59;;;;;;;6.30;5.07;;;;;;;18.68;92.50;97994.78;5089594;28;20274;-78
2022/10/14 11:13:21;;;;;;;6.03;4.80;;;;;;;18.68;93.03;97984.06;5082581;28;20797;-77
2022/10/14 11:15:53;;;;;;;7.03;4.60;;;;;;;18.66;93.01;97978.00;5082478;28;20239;-77
2022/10/14 11:18:32;;;;;;;4.47;3.83;;;;;;;18.57;93.61;97981.66;5084123;28;20299;-76
2022/10/14 11:21:07;;;;;;;6.03;4.10;;;;;;;18.42;94.97;97988.56;5081829;28;20320;-76
2022/10/14 11:23:43;;;;;;;6.57;4.90;;;;;;;18.24;95.58;97979.72;5092343;28;20230;-75
2022/10/14 11:26:21;;;;;;;4.67;4.10;;;;;;;18.08;96.64;97984.97;5087071;28;20656;-74
2022/10/14 11:28:56;;;;;;;6.90;4.57;;;;;;;17.95;97.71;97984.56;5081302;28;20262;-74
2022/10/14 11:31:37;;;;;;;6.17;4.50;;;;;;;17.84;99.29;97990.13;5089160;28;20276;-74
2022/10/14 11:34:27;;;;;;;7.53;5.23;;;;;;;17.69;100.00;97998.84;5086697;28;20223;-74
2022/10/14 11:37:03;;;;;;;5.13;4.00;;;;;;;17.41;100.00;97994.56;5081458;28;20274;-74
2022/10/14 11:39:39;;;;;;;6.53;3.60;;;;;;;17.05;100.00;98007.00;5081330;28;20668;-73
2022/10/14 11:42:23;;;;;;;4.60;3.60;;;;;;;16.82;100.00;97991.53;5084495;28;20258;-74
2022/10/14 11:45:01;;;;;;;4.43;3.43;;;;;;;16.71;100.00;97987.19;5081848;28;20279;-74
2022/10/14 11:47:32;;;;;;;3.47;3.13;;;;;;;16.68;100.00;97995.53;5084293;28;20263;-73
2022/10/14 11:50:12;;;;;;;3.30;3.00;;;;;;;16.66;100.00;97992.16;5084944;28;20265;-74
2022/10/14 11:52:45;;;;;;;5.53;3.70;;;;;;;16.69;100.00;97983.00;5082303;28;20234;-74
2022/10/14 11:55:16;;;;;;;3.53;3.23;;;;;;;16.70;100.00;97977.53;5082990;28;20246;-74
2022/10/14 11:57:46;;;;;;;5.70;3.10;;;;;;;16.73;100.00;97981.72;5087317;28;20262;-75
2022/10/14 12:00:17;;;;;;;4.23;3.17;;;;;;;16.62;100.00;97969.41;5082088;28;20266;-75
2022/10/14 12:02:52;;;;;;;4.50;3.27;;;;;;;16.55;100.00;97968.34;5080309;28;20626;-74
2022/10/14 12:05:28;;;;;;;4.90;3.43;;;;;;;16.60;100.00;97966.06;5085390;28;20253;-75
2022/10/14 12:08:07;;;;;;;5.03;3.10;;;;;;;16.81;100.00;97963.97;5082640;28;20269;-74
2022/10/14 12:10:39;;;;;;;3.77;3.30;;;;;;;16.96;100.00;97951.81;5082025;28;20262;-74
2022/10/14 12:13:12;;;;;;;4.80;4.00;;;;;;;17.10;100.00;97937.97;5084406;28;20226;-74
2022/10/14 12:15:43;;;;;;;4.63;3.57;;;;;;;17.27;100.00;97942.47;5083678;28;20258;-74
2022/10/14 12:18:11;;;;;;;4.73;3.80;;;;;;;17.44;100.00;97941.66;5081713;28;20237;-74
2022/10/14 12:20:46;;;;;;;4.20;3.53;;;;;;;17.54;100.00;97931.75;5081547;28;20287;-74
2022/10/14 12:23:18;;;;;;;3.97;3.57;;;;;;;17.67;100.00;97932.19;5086947;28;20262;-74
2022/10/14 12:25:53;;;;;;;4.50;3.77;;;;;;;17.77;100.00;97927.59;5081568;28;20278;-74
2022/10/14 12:28:20;;;;;;;4.50;3.50;;;;;;;17.86;100.00;97928.50;5079745;28;20266;-74
2022/10/14 12:30:47;;;;;;;3.97;3.17;;;;;;;17.95;100.00;97925.72;5083776;28;20600;-74
2022/10/14 12:33:16;;;;;;;4.63;3.17;;;;;;;18.04;100.00;97911.41;5084121;28;20648;-74
2022/10/14 12:36:26;;;;;;;4.40;3.43;;;;;;;18.15;100.00;97912.97;5081371;28;20313;-74
2022/10/14 12:39:30;;;;;;;4.43;3.10;;;;;;;18.33;100.00;97893.22;5090800;28;20261;-74
2022/10/14 12:42:01;;;;;;;3.47;2.80;;;;;;;18.44;100.00;97894.75;5081335;28;20578;-74
2022/10/14 12:44:34;;;;;;;3.80;2.83;;;;;;;18.58;99.72;97899.50;5082141;28;20304;-74
2022/10/14 12:47:01;;;;;;;3.60;3.13;;;;;;;18.72;97.40;97888.19;5083976;28;20279;-74
2022/10/14 12:49:31;;;;;;;3.97;3.10;;;;;;;18.87;96.88;97892.75;5081298;28;20266;-74
2022/10/14 12:52:03;;;;;;;2.70;2.43;;;;;;;19.01;96.62;97883.25;5081352;28;20595;-74
2022/10/14 12:54:31;;;;;;;3.67;2.80;;;;;;;19.07;96.15;97883.44;5082838;28;20253;-74
2022/10/14 12:57:02;;;;;;;2.97;2.50;;;;;;;19.10;95.16;97874.22;5084730;28;20638;-74
2022/10/14 12:59:31;;;;;;;4.23;3.07;;;;;;;19.09;94.15;97865.34;5081434;28;20603;-76
2022/10/14 13:02:03;;;;;;;3.50;2.83;;;;;;;19.06;94.20;97875.53;5081123;28;20265;-75
2022/10/14 13:04:31;;;;;;;4.93;2.60;;;;;;;19.01;93.51;97877.91;5086308;28;20247;-75
2022/10/14 13:07:39;;;;;;;4.00;2.57;;;;;;;18.93;93.42;97870.69;5089555;28;20496;-75
2022/10/14 13:10:47;;;;;;;2.57;2.30;;;;;;;18.82;92.93;97862.94;5087223;28;20299;-75
2022/10/14 13:13:51;;;;;;;2.63;2.40;;;;;;;18.83;91.71;97850.41;5013157;28;20643;-74
2022/10/14 13:16:58;;;;;;;2.27;2.07;;;;;;;18.82;91.97;97864.78;5090819;28;20250;-74
2022/10/14 13:19:45;;;;;;;2.10;1.90;;;;;;;18.86;92.89;97879.53;5080788;28;20268;-74